Terminal Aerodrome Forecast
Issued by NWS

Home | Current Version | Previous Version | Text Only | Print | Product List | Glossary On
Versions: 1 2 3 4 5 6 7 8 9 10 11 12 13 14
000
FTUS46 KSEW 241700
TAFBLI
TAF
KBLI 241720Z 2418/2518 17009KT P6SM BKN012 OVC030
     FM242000 18010KT P6SM SCT018 OVC030
     FM242300 18010KT P6SM BKN022 OVC035
     FM250200 17010KT P6SM BKN035
     FM250900 17010KT P6SM OVC022
     FM251100 17008KT 5SM -DZ BR OVC018=

USA.gov is the U.S. government's official web portal to all federal, state and local government web resources and services.